createdAt,value
2022-08-03T00:00:28.376Z,66.08
2022-08-03T00:02:55.475Z,66.79
2022-08-03T00:05:22.473Z,67.07
2022-08-03T00:07:49.470Z,66.11
2022-08-03T00:10:17.166Z,66.75
2022-08-03T00:12:44.170Z,67.33
2022-08-03T00:15:16.474Z,67.48
2022-08-03T00:17:52.902Z,67.75
2022-08-03T00:20:21.783Z,66.97
2022-08-03T00:22:49.482Z,67.18
2022-08-03T00:25:16.875Z,67.53
2022-08-03T00:27:43.653Z,67.32
2022-08-03T00:30:10.635Z,67.28
2022-08-03T00:32:38.831Z,68.07
2022-08-03T00:35:20.456Z,68.26
2022-08-03T00:37:59.865Z,68.32
2022-08-03T00:40:27.029Z,68.12
2022-08-03T00:42:54.998Z,67.82
2022-08-03T00:45:24.167Z,68.32
2022-08-03T00:47:51.594Z,68.41
2022-08-03T00:50:19.870Z,68.39
2022-08-03T00:52:51.938Z,68.50
2022-08-03T00:55:18.829Z,69.19
2022-08-03T00:57:45.727Z,68.63
2022-08-03T01:00:15.443Z,69.17
2022-08-03T01:02:42.532Z,68.96
2022-08-03T01:05:10.760Z,68.85
2022-08-03T01:07:55.739Z,69.23
2022-08-03T01:10:26.709Z,69.10
2022-08-03T01:14:01.747Z,70.12
2022-08-03T01:16:36.713Z,70.60
2022-08-03T01:19:22.564Z,69.93
2022-08-03T01:22:07.571Z,70.85
2022-08-03T01:24:51.457Z,70.64
2022-08-03T01:27:43.036Z,71.74
2022-08-03T01:30:12.658Z,71.26
2022-08-03T01:33:00.753Z,71.39
2022-08-03T01:35:52.154Z,71.54
2022-08-03T01:38:36.098Z,71.87
2022-08-03T01:41:11.064Z,72.07
2022-08-03T01:44:27.508Z,72.11
2022-08-03T01:46:28.888Z,72.77
2022-08-03T01:48:57.376Z,73.03
2022-08-03T01:51:58.663Z,72.46
2022-08-03T01:54:14.795Z,72.71
2022-08-03T01:56:43.839Z,73.40
2022-08-03T01:59:12.805Z,72.85
2022-08-03T02:02:15.294Z,73.36
2022-08-03T02:04:29.564Z,72.50
2022-08-03T02:07:01.238Z,73.37
2022-08-03T02:09:31.224Z,73.85
2022-08-03T02:11:59.225Z,74.08
2022-08-03T02:14:28.436Z,73.47
2022-08-03T02:16:58.691Z,72.82
2022-08-03T02:19:30.412Z,72.99
2022-08-03T02:22:01.913Z,72.66
2022-08-03T02:24:30.114Z,72.48
2022-08-03T02:26:57.703Z,72.44
2022-08-03T02:29:38.785Z,72.60
2022-08-03T02:32:12.654Z,72.30
2022-08-03T02:34:42.641Z,73.06
2022-08-03T02:37:13.211Z,73.78
2022-08-03T02:39:42.958Z,73.19
2022-08-03T02:42:12.804Z,73.17
2022-08-03T02:44:47.766Z,73.39
2022-08-03T02:47:15.784Z,74.66
2022-08-03T02:49:51.076Z,74.72
2022-08-03T02:52:21.753Z,74.18
2022-08-03T02:54:51.322Z,74.69
2022-08-03T02:57:20.063Z,75.33
2022-08-03T02:59:47.811Z,74.99
2022-08-03T03:02:17.336Z,75.63
2022-08-03T03:05:51.720Z,75.29
2022-08-03T03:07:39.137Z,75.22
2022-08-03T03:10:21.545Z,76.01
2022-08-03T03:12:52.280Z,75.36
2022-08-03T03:15:19.221Z,75.53
2022-08-03T03:17:47.813Z,75.64
2022-08-03T03:20:16.039Z,75.10
2022-08-03T03:22:56.640Z,75.73
2022-08-03T03:25:24.719Z,74.62
2022-08-03T03:27:51.798Z,74.06
2022-08-03T03:30:22.012Z,74.76
2022-08-03T03:32:49.137Z,74.85
2022-08-03T03:35:16.833Z,75.23
2022-08-03T03:37:43.627Z,75.82
2022-08-03T03:40:14.503Z,75.47
2022-08-03T03:42:41.607Z,75.00
2022-08-03T03:45:09.169Z,75.26
2022-08-03T03:47:36.144Z,75.67
2022-08-03T03:50:04.807Z,76.47
2022-08-03T03:52:32.883Z,76.41
2022-08-03T03:55:01.243Z,76.31
2022-08-03T03:57:29.405Z,75.39
2022-08-03T03:59:56.492Z,75.75
2022-08-03T04:02:23.479Z,75.88
2022-08-03T04:05:08.694Z,76.87
2022-08-03T04:08:22.322Z,76.11
2022-08-03T04:11:03.010Z,74.90
2022-08-03T04:13:37.015Z,75.71
2022-08-03T04:16:05.313Z,75.91
2022-08-03T04:18:34.848Z,75.13
2022-08-03T04:21:08.735Z,75.69
2022-08-03T04:23:40.177Z,75.29
2022-08-03T04:26:10.035Z,74.89
2022-08-03T04:28:39.975Z,75.26
2022-08-03T04:31:07.444Z,75.59
2022-08-03T04:33:37.347Z,75.09
2022-08-03T04:36:09.124Z,75.39
2022-08-03T04:38:44.546Z,75.54
2022-08-03T04:41:13.090Z,76.23
2022-08-03T04:43:41.883Z,76.46
2022-08-03T04:46:09.338Z,75.65
2022-08-03T04:48:36.359Z,76.01
2022-08-03T04:51:04.575Z,76.13
2022-08-03T04:53:31.426Z,75.71
2022-08-03T04:56:07.408Z,75.68
2022-08-03T04:58:34.179Z,75.59
2022-08-03T05:01:00.925Z,75.50
2022-08-03T05:03:27.683Z,75.27
2022-08-03T05:06:01.980Z,75.24
2022-08-03T05:08:41.129Z,75.10
2022-08-03T05:11:14.115Z,75.04
2022-08-03T05:13:40.832Z,75.09
2022-08-03T05:16:07.824Z,75.10
2022-08-03T05:18:36.064Z,74.31
2022-08-03T05:21:02.938Z,73.14
2022-08-03T05:23:29.672Z,72.44
2022-08-03T05:25:58.691Z,72.45
2022-08-03T05:28:25.440Z,72.16
2022-08-03T05:30:52.394Z,71.83
2022-08-03T05:33:19.288Z,72.07
2022-08-03T05:35:56.016Z,72.04
2022-08-03T05:38:34.316Z,72.90
2022-08-03T05:41:21.699Z,72.49
2022-08-03T05:43:54.733Z,73.69
2022-08-03T05:46:23.456Z,72.76
2022-08-03T05:48:50.547Z,72.91
2022-08-03T05:51:17.570Z,71.57
2022-08-03T05:53:44.932Z,71.07
2022-08-03T05:56:15.357Z,71.22
2022-08-03T05:58:52.635Z,71.56
2022-08-03T06:01:22.045Z,70.75
2022-08-03T06:03:50.263Z,72.29
2022-08-03T06:06:17.365Z,72.64
2022-08-03T06:08:45.637Z,71.48
2022-08-03T06:11:13.373Z,70.72
2022-08-03T06:13:42.327Z,70.31
2022-08-03T06:16:09.766Z,69.03
2022-08-03T06:18:37.350Z,68.81
2022-08-03T06:21:14.292Z,70.66
2022-08-03T06:23:53.090Z,70.40
2022-08-03T06:26:21.021Z,70.79
2022-08-03T06:28:52.482Z,68.61
2022-08-03T06:31:32.385Z,65.84
2022-08-03T06:34:31.654Z,64.91
2022-08-03T06:36:52.614Z,64.75
2022-08-03T06:39:19.986Z,63.43
2022-08-03T06:41:46.837Z,63.63
2022-08-03T06:44:13.748Z,65.30
2022-08-03T06:46:40.849Z,64.11
2022-08-03T06:49:08.344Z,63.46
2022-08-03T06:52:05.914Z,63.39
2022-08-03T06:54:24.857Z,62.49
2022-08-03T06:56:52.171Z,62.26
2022-08-03T07:00:06.438Z,60.81
2022-08-03T07:02:06.112Z,59.42
2022-08-03T07:04:33.463Z,61.49
2022-08-03T07:07:02.933Z,60.68
2022-08-03T07:09:29.822Z,58.83
2022-08-03T07:11:57.206Z,59.45
2022-08-03T07:14:24.149Z,60.30
2022-08-03T07:16:51.078Z,59.35
2022-08-03T07:19:18.045Z,56.56
2022-08-03T07:21:46.002Z,58.17
2022-08-03T07:24:13.021Z,58.03
2022-08-03T07:26:39.895Z,57.41
2022-08-03T07:29:11.743Z,57.54
2022-08-03T07:31:42.809Z,56.14
2022-08-03T07:34:09.702Z,58.15
2022-08-03T07:36:36.547Z,57.53
2022-08-03T07:39:15.820Z,56.44
2022-08-03T07:41:45.178Z,54.94
2022-08-03T07:44:11.902Z,54.78
2022-08-03T07:46:38.729Z,54.52
2022-08-03T07:49:06.087Z,54.48
2022-08-03T07:51:32.895Z,55.00
2022-08-03T07:54:01.020Z,53.23
2022-08-03T07:56:28.350Z,53.34
2022-08-03T07:58:55.740Z,54.47
2022-08-03T08:01:23.640Z,53.31
2022-08-03T08:03:53.250Z,52.57
2022-08-03T08:06:21.504Z,53.39
2022-08-03T08:08:48.652Z,55.38
2022-08-03T08:11:15.659Z,53.08
2022-08-03T08:13:42.569Z,52.58
2022-08-03T08:16:09.679Z,51.92
2022-08-03T08:18:36.784Z,51.60
2022-08-03T08:21:03.812Z,52.20
2022-08-03T08:23:43.434Z,52.59
2022-08-03T08:26:11.811Z,53.85
2022-08-03T08:28:38.579Z,50.50
2022-08-03T08:31:05.236Z,51.21
2022-08-03T08:33:48.343Z,51.65
2022-08-03T08:36:19.814Z,50.40
2022-08-03T08:38:46.702Z,51.01
2022-08-03T08:41:15.095Z,51.23
2022-08-03T08:43:42.915Z,51.91
2022-08-03T08:46:23.560Z,52.20
2022-08-03T08:48:51.933Z,51.44
2022-08-03T08:51:21.134Z,52.19
2022-08-03T08:53:53.955Z,53.00
2022-08-03T08:56:25.680Z,53.67
2022-08-03T08:58:57.030Z,50.27
2022-08-03T09:01:24.138Z,48.30
2022-08-03T09:03:51.475Z,51.20
2022-08-03T09:06:18.406Z,48.30
2022-08-03T09:08:45.259Z,48.66
2022-08-03T09:11:12.344Z,48.50
2022-08-03T09:13:40.043Z,51.33
2022-08-03T09:16:21.248Z,48.07
2022-08-03T09:18:51.104Z,47.54
2022-08-03T09:21:34.148Z,48.08
2022-08-03T09:24:04.761Z,48.03
2022-08-03T09:26:35.187Z,48.05
2022-08-03T09:29:13.483Z,48.18
2022-08-03T09:31:46.616Z,46.80
2022-08-03T09:34:16.781Z,47.65
2022-08-03T09:36:49.548Z,46.86
2022-08-03T09:39:18.613Z,46.89
2022-08-03T09:41:49.138Z,46.58
2022-08-03T09:44:25.130Z,45.55
2022-08-03T09:46:56.767Z,48.32
2022-08-03T09:49:24.979Z,47.01
2022-08-03T09:52:33.195Z,46.24
2022-08-03T09:54:43.588Z,46.15
2022-08-03T09:57:24.886Z,44.48
2022-08-03T10:00:02.999Z,46.79
2022-08-03T10:02:33.235Z,46.76
2022-08-03T10:04:59.925Z,46.05
2022-08-03T10:07:27.427Z,45.03
2022-08-03T10:09:56.830Z,47.47
2022-08-03T10:12:25.004Z,44.76
2022-08-03T10:14:52.969Z,44.76
2022-08-03T10:17:21.050Z,44.36
2022-08-03T10:19:49.173Z,45.81
2022-08-03T10:22:32.676Z,45.11
2022-08-03T10:25:11.703Z,46.06
2022-08-03T10:27:42.480Z,46.05
2022-08-03T10:30:13.132Z,45.55
2022-08-03T10:32:55.583Z,44.38
2022-08-03T10:35:24.272Z,46.02
2022-08-03T10:38:03.501Z,44.33
2022-08-03T10:40:47.951Z,43.45
2022-08-03T10:43:26.344Z,44.24
2022-08-03T10:45:53.625Z,44.71
2022-08-03T10:48:21.570Z,43.86
2022-08-03T10:50:50.602Z,44.62
2022-08-03T10:53:35.122Z,43.51
2022-08-03T10:56:27.413Z,48.17
2022-08-03T10:59:08.908Z,42.90
2022-08-03T11:02:00.288Z,43.65
2022-08-03T11:04:30.011Z,43.91
2022-08-03T11:07:16.125Z,46.01
2022-08-03T11:09:45.367Z,45.45
2022-08-03T11:12:31.390Z,43.56
2022-08-03T11:15:32.551Z,43.16
2022-08-03T11:18:11.109Z,44.00
2022-08-03T11:20:53.488Z,43.80
2022-08-03T11:24:02.759Z,42.52
2022-08-03T11:26:29.769Z,43.81
2022-08-03T11:29:29.903Z,42.65
2022-08-03T11:31:57.560Z,43.38
2022-08-03T11:34:24.966Z,42.71
2022-08-03T11:37:26.387Z,42.95
2022-08-03T11:39:57.345Z,42.30
2022-08-03T11:42:24.087Z,42.98
2022-08-03T11:44:55.931Z,41.75
2022-08-03T11:47:26.967Z,41.13
2022-08-03T11:49:59.259Z,42.64
2022-08-03T11:52:28.771Z,41.70
2022-08-03T11:54:57.197Z,41.91
2022-08-03T11:59:01.446Z,41.00
2022-08-03T12:00:26.024Z,41.37
2022-08-03T12:03:09.499Z,39.20
2022-08-03T12:05:41.775Z,38.45
2022-08-03T12:08:30.289Z,39.88
2022-08-03T12:11:00.122Z,38.77
2022-08-03T12:14:44.309Z,39.65
2022-08-03T12:16:19.716Z,39.17
2022-08-03T12:18:56.874Z,37.04
2022-08-03T12:21:25.020Z,38.78
2022-08-03T12:23:56.098Z,38.41
2022-08-03T12:26:22.871Z,38.24
2022-08-03T12:28:50.175Z,36.84
2022-08-03T12:31:17.129Z,37.96
2022-08-03T12:34:06.561Z,36.37
2022-08-03T12:36:34.905Z,34.83
2022-08-03T12:39:05.063Z,35.83
2022-08-03T12:41:34.780Z,36.09
2022-08-03T12:44:06.381Z,34.96
2022-08-03T12:46:41.623Z,35.46
2022-08-03T12:49:15.625Z,36.31
2022-08-03T12:51:42.466Z,34.79
2022-08-03T12:54:15.870Z,35.33
2022-08-03T12:57:07.018Z,35.36
2022-08-03T12:59:41.316Z,35.02
2022-08-03T13:02:24.071Z,35.16
2022-08-03T13:04:53.243Z,38.03
2022-08-03T13:07:20.974Z,36.16
2022-08-03T13:09:50.932Z,35.41
2022-08-03T13:12:20.989Z,34.66
2022-08-03T13:14:50.841Z,34.36
2022-08-03T13:17:18.374Z,34.09
2022-08-03T13:19:46.763Z,35.16
2022-08-03T13:22:22.310Z,35.51
2022-08-03T13:24:51.760Z,35.26
2022-08-03T13:28:00.949Z,35.42
2022-08-03T13:30:06.943Z,34.82
2022-08-03T13:32:34.303Z,34.89
2022-08-03T13:35:02.810Z,33.84
2022-08-03T13:37:32.180Z,32.59
2022-08-03T13:40:02.581Z,32.94
2022-08-03T13:42:31.707Z,34.76
2022-08-03T13:44:59.418Z,33.90
2022-08-03T13:47:26.665Z,33.78
2022-08-03T13:50:00.174Z,35.28
2022-08-03T13:52:36.638Z,33.63
2022-08-03T13:55:05.998Z,33.75
2022-08-03T13:58:19.024Z,33.49
2022-08-03T14:00:26.608Z,32.95
2022-08-03T14:03:13.394Z,34.16
2022-08-03T14:05:42.690Z,34.86
2022-08-03T14:08:09.776Z,34.22
2022-08-03T14:10:39.167Z,34.60
2022-08-03T14:13:10.590Z,33.97
2022-08-03T14:15:38.530Z,33.51
2022-08-03T14:18:12.598Z,33.24
2022-08-03T14:20:47.806Z,33.01
2022-08-03T14:23:17.554Z,32.64
2022-08-03T14:25:51.883Z,31.77
2022-08-03T14:28:23.075Z,32.91
2022-08-03T14:30:54.656Z,32.87
2022-08-03T14:33:21.568Z,32.44
2022-08-03T14:35:48.793Z,33.71
2022-08-03T14:38:15.891Z,33.42
2022-08-03T14:40:42.864Z,32.54
2022-08-03T14:43:09.574Z,32.57
2022-08-03T14:45:36.247Z,32.55
2022-08-03T14:49:02.621Z,30.76
2022-08-03T14:50:52.772Z,29.35
2022-08-03T14:53:20.109Z,28.00
2022-08-03T14:55:50.607Z,25.11
2022-08-03T14:58:20.674Z,23.25
2022-08-03T15:00:48.881Z,22.54
2022-08-03T15:03:16.854Z,20.77
2022-08-03T15:05:44.393Z,20.83
2022-08-03T15:08:11.201Z,21.99
2022-08-03T15:10:44.440Z,20.97
2022-08-03T15:13:13.227Z,19.11
2022-08-03T15:15:40.529Z,19.38
2022-08-03T15:18:07.683Z,18.67
2022-08-03T15:20:49.914Z,19.18
2022-08-03T15:23:17.504Z,19.01
2022-08-03T15:26:04.294Z,18.89
2022-08-03T15:28:32.411Z,18.69
2022-08-03T15:30:59.341Z,18.49
2022-08-03T15:33:27.543Z,18.58
2022-08-03T15:35:54.300Z,17.96
2022-08-03T15:38:25.851Z,18.38
2022-08-03T15:40:56.995Z,19.24
2022-08-03T15:43:24.131Z,18.20
2022-08-03T15:46:12.638Z,18.75
2022-08-03T15:48:38.225Z,17.10
2022-08-03T15:51:06.158Z,17.92
2022-08-03T15:53:33.789Z,18.43
2022-08-03T15:56:02.024Z,17.28
2022-08-03T15:59:03.758Z,17.77
2022-08-03T16:01:20.316Z,18.24
2022-08-03T16:03:47.274Z,17.68
2022-08-03T16:06:14.002Z,17.65
2022-08-03T16:08:40.749Z,18.17
2022-08-03T16:11:07.575Z,18.31
2022-08-03T16:14:11.960Z,19.57
2022-08-03T16:16:21.317Z,18.04
2022-08-03T16:18:48.173Z,18.11
2022-08-03T16:21:15.225Z,18.74
2022-08-03T16:23:47.108Z,21.10
2022-08-03T16:26:14.650Z,19.96
2022-08-03T16:28:41.660Z,19.68
2022-08-03T16:31:09.294Z,18.71
2022-08-03T16:33:36.395Z,20.10
2022-08-03T16:36:03.395Z,20.66
2022-08-03T16:38:30.704Z,20.26
2022-08-03T16:40:57.738Z,20.88
2022-08-03T16:43:24.988Z,20.82
2022-08-03T16:45:52.302Z,21.48
2022-08-03T16:48:19.899Z,22.60
2022-08-03T16:50:47.528Z,20.88
2022-08-03T16:53:15.692Z,21.80
2022-08-03T16:55:52.385Z,23.77
2022-08-03T16:58:34.847Z,25.39
2022-08-03T17:01:21.618Z,27.16
2022-08-03T17:04:01.515Z,27.81
2022-08-03T17:06:35.515Z,30.03
2022-08-03T17:09:08.699Z,31.02
2022-08-03T17:11:38.208Z,32.74
2022-08-03T17:14:09.489Z,32.90
2022-08-03T17:16:38.450Z,34.03
2022-08-03T17:19:07.526Z,34.11
2022-08-03T17:21:39.090Z,35.23
2022-08-03T17:24:23.967Z,35.95
2022-08-03T17:26:53.654Z,37.20
2022-08-03T17:29:25.173Z,38.60
2022-08-03T17:31:53.039Z,39.12
2022-08-03T17:34:20.663Z,40.51
2022-08-03T17:37:27.094Z,40.87
2022-08-03T17:40:00.027Z,40.97
2022-08-03T17:42:30.542Z,41.18
2022-08-03T17:45:02.348Z,42.72
2022-08-03T17:47:42.056Z,44.12
2022-08-03T17:50:25.176Z,42.94
2022-08-03T17:53:07.641Z,44.57
2022-08-03T17:55:54.800Z,45.45
2022-08-03T17:58:54.834Z,45.88
2022-08-03T18:02:06.487Z,46.30
2022-08-03T18:04:41.770Z,46.52
2022-08-03T18:07:12.467Z,49.12
2022-08-03T18:10:04.314Z,50.10
2022-08-03T18:12:40.172Z,50.90
2022-08-03T18:15:21.006Z,52.16
2022-08-03T18:17:55.873Z,51.66
2022-08-03T18:20:34.246Z,53.19
2022-08-03T18:23:06.154Z,52.94
2022-08-03T18:25:42.652Z,53.88
2022-08-03T18:28:18.881Z,53.59
2022-08-03T18:30:54.009Z,54.26
2022-08-03T18:34:19.156Z,54.66
2022-08-03T18:36:17.494Z,54.02
2022-08-03T18:38:49.146Z,54.33
2022-08-03T18:41:21.992Z,54.38
2022-08-03T18:44:08.203Z,55.17
2022-08-03T18:49:40.170Z,56.75
2022-08-03T18:52:17.678Z,56.39
2022-08-03T18:55:04.485Z,57.07
2022-08-03T18:57:49.249Z,58.05
2022-08-03T19:00:24.907Z,57.59
2022-08-03T19:03:12.248Z,57.48
2022-08-03T19:08:49.481Z,57.55
2022-08-03T19:12:13.242Z,56.99
2022-08-03T19:14:36.281Z,56.72
2022-08-03T19:17:09.872Z,58.04
2022-08-03T19:19:44.096Z,57.71
2022-08-03T19:22:15.934Z,58.21
2022-08-03T19:24:45.663Z,58.18
2022-08-03T19:27:12.956Z,58.15
2022-08-03T19:29:59.435Z,58.85
2022-08-03T19:32:29.547Z,58.73
2022-08-03T19:34:59.553Z,58.93
2022-08-03T19:37:38.596Z,58.69
2022-08-03T19:40:10.255Z,58.61
2022-08-03T19:42:44.415Z,58.87
2022-08-03T19:45:14.690Z,58.18
2022-08-03T19:47:45.827Z,58.23
2022-08-03T19:50:14.223Z,58.60
2022-08-03T19:52:43.950Z,59.22
2022-08-03T19:55:12.139Z,59.28
2022-08-03T19:57:42.598Z,59.00
2022-08-03T20:00:12.578Z,59.77
2022-08-03T20:02:41.347Z,59.78
2022-08-03T20:05:15.524Z,59.25
2022-08-03T20:07:47.483Z,59.22
2022-08-03T20:10:16.045Z,60.12
2022-08-03T20:12:44.510Z,59.72
2022-08-03T20:15:12.071Z,60.83
2022-08-03T20:17:56.418Z,60.44
2022-08-03T20:20:27.413Z,59.81
2022-08-03T20:22:57.790Z,59.87
2022-08-03T20:25:38.228Z,60.47
2022-08-03T20:28:13.621Z,61.53
2022-08-03T20:30:43.964Z,61.11
2022-08-03T20:33:11.289Z,60.90
2022-08-03T20:35:38.125Z,60.71
2022-08-03T20:38:09.335Z,62.36
2022-08-03T20:40:36.303Z,62.28
2022-08-03T20:43:04.797Z,62.05
2022-08-03T20:46:00.945Z,61.40
2022-08-03T20:48:18.421Z,61.64
2022-08-03T20:50:49.536Z,61.47
2022-08-03T20:53:56.860Z,61.23
2022-08-03T20:56:05.011Z,61.99
2022-08-03T20:58:35.661Z,62.53
2022-08-03T21:01:03.321Z,62.01
2022-08-03T21:03:40.859Z,61.77
2022-08-03T21:06:27.858Z,61.93
2022-08-03T21:09:00.409Z,62.11
2022-08-03T21:11:41.771Z,62.02
2022-08-03T21:13:01.363Z,57.06
2022-08-03T21:14:37.785Z,62.69
2022-08-03T21:17:14.012Z,63.09
2022-08-03T21:19:52.180Z,63.44
2022-08-03T21:22:23.180Z,62.67
2022-08-03T21:24:55.749Z,62.59
2022-08-03T21:27:23.970Z,62.51
2022-08-03T21:29:53.025Z,62.93
2022-08-03T21:32:32.615Z,62.35
2022-08-03T21:35:01.264Z,62.53
2022-08-03T21:37:29.120Z,62.88
2022-08-03T21:39:56.699Z,63.79
2022-08-03T21:42:24.041Z,64.29
2022-08-03T21:44:54.596Z,64.38
2022-08-03T21:47:23.785Z,65.06
2022-08-03T21:50:08.559Z,65.11
2022-08-03T21:52:41.613Z,65.24
2022-08-03T21:55:09.082Z,65.49
2022-08-03T21:57:53.564Z,65.48
2022-08-03T22:00:23.287Z,65.98
2022-08-03T22:02:57.369Z,64.91
2022-08-03T22:05:42.999Z,65.04
2022-08-03T22:08:14.190Z,65.32
2022-08-03T22:10:43.748Z,65.53
2022-08-03T22:13:11.870Z,65.22
2022-08-03T22:15:38.646Z,65.83
2022-08-03T22:18:05.498Z,66.50
2022-08-03T22:20:32.298Z,66.27
2022-08-03T22:23:05.491Z,65.93
2022-08-03T22:25:35.316Z,66.20
2022-08-03T22:28:11.606Z,67.40
2022-08-03T22:30:40.274Z,67.25
2022-08-03T22:33:11.692Z,67.49
2022-08-03T22:35:44.271Z,67.29
2022-08-03T22:38:15.505Z,66.83
2022-08-03T22:40:42.760Z,66.78
2022-08-03T22:43:09.398Z,67.32
2022-08-03T22:46:07.647Z,67.44
2022-08-03T22:48:23.535Z,67.14
2022-08-03T22:50:50.351Z,66.77
2022-08-03T22:53:22.097Z,66.83
2022-08-03T22:55:49.639Z,66.29
2022-08-03T22:58:16.880Z,67.36
2022-08-03T23:01:05.990Z,67.14
2022-08-03T23:03:58.678Z,67.79
2022-08-03T23:06:26.390Z,67.77
2022-08-03T23:08:54.001Z,67.32
2022-08-03T23:11:23.999Z,67.46
2022-08-03T23:13:54.370Z,67.26
2022-08-03T23:16:28.633Z,67.00
2022-08-03T23:18:58.690Z,67.92
2022-08-03T23:22:00.132Z,68.14
2022-08-03T23:24:26.043Z,68.88
2022-08-03T23:26:57.118Z,69.01
2022-08-03T23:29:23.927Z,68.68
2022-08-03T23:31:52.816Z,68.59
2022-08-03T23:34:37.976Z,68.17
2022-08-03T23:37:05.714Z,67.77
2022-08-03T23:39:35.340Z,68.33
2022-08-03T23:42:03.133Z,69.17
2022-08-03T23:44:36.172Z,69.02
2022-08-03T23:47:02.869Z,69.48
2022-08-03T23:49:29.618Z,69.30
2022-08-03T23:52:17.656Z,69.12
2022-08-03T23:55:06.155Z,69.69
2022-08-03T23:58:00.829Z,69.08
